Terminal Aerodrome Forecast
Issued by NWS

Home | Current Version | Previous Version | Text Only | Print | Product List | Glossary On
Versions: 1 2 3 4 5 6 7 8 9 10 11 12 13 14 15 16
000
FTUS46 KMTR 301100
TAFSTS
TAF
KSTS 301120Z 3012/3112 15004KT P6SM SCT200
     FM301300 VRB03KT 1/2SM FG OVC003
     FM301600 VRB04KT P6SM SCT005 BKN200
     FM301900 19007KT P6SM SCT200
     FM310300 VRB03KT P6SM SCT200=

USA.gov is the U.S. government's official web portal to all federal, state and local government web resources and services.